sensor_id;sensor_type;location;lat;lon;timestamp;pressure;altitude;pressure_sealevel;temperature;humidity
41800;BME280;27468;47.460;19.034;2022-07-06T00:02:23;100256.56;;;18.85;79.59
41800;BME280;27468;47.460;19.034;2022-07-06T00:04:48;100252.59;;;18.76;80.49
41800;BME280;27468;47.460;19.034;2022-07-06T00:07:14;100252.78;;;18.73;80.07
41800;BME280;27468;47.460;19.034;2022-07-06T00:09:41;100252.09;;;18.69;80.47
41800;BME280;27468;47.460;19.034;2022-07-06T00:12:07;100238.84;;;18.51;80.18
41800;BME280;27468;47.460;19.034;2022-07-06T00:14:33;100249.91;;;18.60;80.31
41800;BME280;27468;47.460;19.034;2022-07-06T00:16:58;100236.88;;;18.54;80.49
41800;BME280;27468;47.460;19.034;2022-07-06T00:19:24;100253.34;;;18.62;80.58
41800;BME280;27468;47.460;19.034;2022-07-06T00:21:49;100207.22;;;18.27;80.50
41800;BME280;27468;47.460;19.034;2022-07-06T00:24:15;100256.50;;;18.53;80.93
41800;BME280;27468;47.460;19.034;2022-07-06T00:26:43;100234.13;;;18.40;80.63
41800;BME280;27468;47.460;19.034;2022-07-06T00:29:08;100246.06;;;18.48;80.78
41800;BME280;27468;47.460;19.034;2022-07-06T00:31:34;100247.91;;;18.48;80.68
41800;BME280;27468;47.460;19.034;2022-07-06T00:34:00;100248.25;;;18.42;80.61
41800;BME280;27468;47.460;19.034;2022-07-06T00:36:25;100256.16;;;18.43;80.54
41800;BME280;27468;47.460;19.034;2022-07-06T00:38:51;100246.84;;;18.35;80.68
41800;BME280;27468;47.460;19.034;2022-07-06T00:41:16;100246.16;;;18.31;80.46
41800;BME280;27468;47.460;19.034;2022-07-06T00:43:53;100274.94;;;18.42;80.40
41800;BME280;27468;47.460;19.034;2022-07-06T00:46:28;100252.44;;;18.30;81.32
41800;BME280;27468;47.460;19.034;2022-07-06T00:48:54;100255.19;;;18.29;82.04
41800;BME280;27468;47.460;19.034;2022-07-06T00:51:22;100251.09;;;18.22;82.11
41800;BME280;27468;47.460;19.034;2022-07-06T00:53:50;100265.84;;;18.29;81.95
41800;BME280;27468;47.460;19.034;2022-07-06T00:56:16;100254.22;;;18.30;81.70
41800;BME280;27468;47.460;19.034;2022-07-06T00:58:41;100249.13;;;18.25;81.63
41800;BME280;27468;47.460;19.034;2022-07-06T01:01:07;100236.13;;;18.19;81.85
41800;BME280;27468;47.460;19.034;2022-07-06T01:03:32;100259.72;;;18.27;81.64
41800;BME280;27468;47.460;19.034;2022-07-06T01:05:58;100235.09;;;18.22;81.45
41800;BME280;27468;47.460;19.034;2022-07-06T01:08:24;100251.31;;;18.34;81.53
41800;BME280;27468;47.460;19.034;2022-07-06T01:10:50;100225.00;;;18.11;81.89
41800;BME280;27468;47.460;19.034;2022-07-06T01:13:15;100250.09;;;18.24;81.96
41800;BME280;27468;47.460;19.034;2022-07-06T01:15:41;100240.44;;;18.22;82.08
41800;BME280;27468;47.460;19.034;2022-07-06T01:18:09;100245.78;;;18.22;81.75
41800;BME280;27468;47.460;19.034;2022-07-06T01:20:36;100254.63;;;18.22;81.99
41800;BME280;27468;47.460;19.034;2022-07-06T01:23:01;100249.72;;;18.14;82.06
41800;BME280;27468;47.460;19.034;2022-07-06T01:25:27;100215.59;;;18.04;82.22
41800;BME280;27468;47.460;19.034;2022-07-06T01:27:53;100222.50;;;18.08;81.97
41800;BME280;27468;47.460;19.034;2022-07-06T01:30:19;100221.09;;;18.01;82.00
41800;BME280;27468;47.460;19.034;2022-07-06T01:32:45;100250.41;;;18.18;82.25
41800;BME280;27468;47.460;19.034;2022-07-06T01:35:14;100225.72;;;17.97;82.21
41800;BME280;27468;47.460;19.034;2022-07-06T01:37:41;100257.31;;;18.05;82.96
41800;BME280;27468;47.460;19.034;2022-07-06T01:40:10;100229.84;;;17.87;82.84
41800;BME280;27468;47.460;19.034;2022-07-06T01:42:35;100215.19;;;17.78;82.56
41800;BME280;27468;47.460;19.034;2022-07-06T01:45:03;100260.31;;;17.99;82.95
41800;BME280;27468;47.460;19.034;2022-07-06T01:47:28;100251.44;;;17.98;83.19
41800;BME280;27468;47.460;19.034;2022-07-06T01:49:54;100243.88;;;17.91;82.94
41800;BME280;27468;47.460;19.034;2022-07-06T01:52:19;100252.63;;;17.93;82.99
41800;BME280;27468;47.460;19.034;2022-07-06T01:54:45;100231.50;;;17.72;83.19
41800;BME280;27468;47.460;19.034;2022-07-06T01:57:10;100250.63;;;17.80;83.42
41800;BME280;27468;47.460;19.034;2022-07-06T01:59:36;100245.44;;;17.77;84.00
41800;BME280;27468;47.460;19.034;2022-07-06T02:02:02;100257.53;;;17.85;83.37
41800;BME280;27468;47.460;19.034;2022-07-06T02:04:27;100257.75;;;17.80;83.76
41800;BME280;27468;47.460;19.034;2022-07-06T02:06:52;100268.34;;;17.81;83.75
41800;BME280;27468;47.460;19.034;2022-07-06T02:09:18;100238.00;;;17.67;83.71
41800;BME280;27468;47.460;19.034;2022-07-06T02:11:44;100231.22;;;17.60;83.55
41800;BME280;27468;47.460;19.034;2022-07-06T02:14:09;100259.81;;;17.75;83.82
41800;BME280;27468;47.460;19.034;2022-07-06T02:16:35;100240.78;;;17.64;83.77
41800;BME280;27468;47.460;19.034;2022-07-06T02:19:00;100259.19;;;17.70;83.58
41800;BME280;27468;47.460;19.034;2022-07-06T02:21:26;100284.91;;;17.71;83.79
41800;BME280;27468;47.460;19.034;2022-07-06T02:23:51;100248.88;;;17.62;84.21
41800;BME280;27468;47.460;19.034;2022-07-06T02:26:17;100258.31;;;17.69;84.22
41800;BME280;27468;47.460;19.034;2022-07-06T02:28:42;100233.97;;;17.58;84.21
41800;BME280;27468;47.460;19.034;2022-07-06T02:31:08;100258.38;;;17.68;84.27
41800;BME280;27468;47.460;19.034;2022-07-06T02:33:33;100217.66;;;17.47;83.87
41800;BME280;27468;47.460;19.034;2022-07-06T02:35:58;100272.50;;;17.70;83.91
41800;BME280;27468;47.460;19.034;2022-07-06T02:38:24;100247.69;;;17.50;84.24
41800;BME280;27468;47.460;19.034;2022-07-06T02:40:49;100241.47;;;17.50;83.70
41800;BME280;27468;47.460;19.034;2022-07-06T02:43:15;100252.31;;;17.64;83.32
41800;BME280;27468;47.460;19.034;2022-07-06T02:45:40;100238.44;;;17.58;82.78
41800;BME280;27468;47.460;19.034;2022-07-06T02:48:06;100270.00;;;17.67;83.29
41800;BME280;27468;47.460;19.034;2022-07-06T02:50:31;100271.84;;;17.65;82.65
41800;BME280;27468;47.460;19.034;2022-07-06T02:52:57;100288.28;;;17.74;82.97
41800;BME280;27468;47.460;19.034;2022-07-06T02:55:23;100306.06;;;17.74;82.09
41800;BME280;27468;47.460;19.034;2022-07-06T02:57:49;100283.59;;;17.61;83.03
41800;BME280;27468;47.460;19.034;2022-07-06T03:00:14;100287.72;;;17.68;82.93
41800;BME280;27468;47.460;19.034;2022-07-06T03:02:40;100299.81;;;17.75;82.50
41800;BME280;27468;47.460;19.034;2022-07-06T03:05:06;100308.59;;;17.77;82.97
41800;BME280;27468;47.460;19.034;2022-07-06T03:07:31;100316.50;;;17.78;82.87
41800;BME280;27468;47.460;19.034;2022-07-06T03:09:57;100279.50;;;17.54;83.10
41800;BME280;27468;47.460;19.034;2022-07-06T03:12:22;100320.81;;;17.81;83.48
41800;BME280;27468;47.460;19.034;2022-07-06T03:14:47;100305.38;;;17.70;83.27
41800;BME280;27468;47.460;19.034;2022-07-06T03:17:13;100307.00;;;17.73;83.63
41800;BME280;27468;47.460;19.034;2022-07-06T03:19:38;100298.31;;;17.69;83.42
41800;BME280;27468;47.460;19.034;2022-07-06T03:22:04;100303.19;;;17.78;83.64
41800;BME280;27468;47.460;19.034;2022-07-06T03:24:30;100297.06;;;17.76;83.26
41800;BME280;27468;47.460;19.034;2022-07-06T03:26:55;100288.06;;;17.60;82.46
41800;BME280;27468;47.460;19.034;2022-07-06T03:29:20;100299.94;;;17.72;83.28
41800;BME280;27468;47.460;19.034;2022-07-06T03:31:46;100312.19;;;17.76;82.70
41800;BME280;27468;47.460;19.034;2022-07-06T03:34:12;100320.13;;;17.77;82.35
41800;BME280;27468;47.460;19.034;2022-07-06T03:36:38;100323.34;;;17.84;82.76
41800;BME280;27468;47.460;19.034;2022-07-06T03:39:03;100294.94;;;17.66;81.71
41800;BME280;27468;47.460;19.034;2022-07-06T03:41:28;100319.81;;;17.84;82.41
41800;BME280;27468;47.460;19.034;2022-07-06T03:43:54;100315.09;;;17.89;81.35
41800;BME280;27468;47.460;19.034;2022-07-06T03:46:19;100312.38;;;17.90;80.85
41800;BME280;27468;47.460;19.034;2022-07-06T03:48:45;100312.25;;;17.92;80.34
41800;BME280;27468;47.460;19.034;2022-07-06T03:51:10;100312.94;;;18.47;79.52
41800;BME280;27468;47.460;19.034;2022-07-06T03:53:37;100291.09;;;18.72;76.92
41800;BME280;27468;47.460;19.034;2022-07-06T03:56:02;100316.28;;;19.15;76.10
41800;BME280;27468;47.460;19.034;2022-07-06T03:58:47;100286.13;;;19.74;72.89
41800;BME280;27468;47.460;19.034;2022-07-06T04:01:12;100299.00;;;20.42;70.59
41800;BME280;27468;47.460;19.034;2022-07-06T04:03:37;100310.06;;;20.93;67.21
41800;BME280;27468;47.460;19.034;2022-07-06T04:06:04;100306.03;;;21.28;65.26
41800;BME280;27468;47.460;19.034;2022-07-06T04:08:29;100295.66;;;21.76;64.50
41800;BME280;27468;47.460;19.034;2022-07-06T04:10:54;100293.50;;;22.33;61.77
41800;BME280;27468;47.460;19.034;2022-07-06T04:13:20;100274.44;;;22.74;59.87
41800;BME280;27468;47.460;19.034;2022-07-06T04:15:46;100306.59;;;23.25;57.58
41800;BME280;27468;47.460;19.034;2022-07-06T04:18:11;100306.50;;;23.51;57.41
41800;BME280;27468;47.460;19.034;2022-07-06T04:20:36;100299.16;;;23.53;55.56
41800;BME280;27468;47.460;19.034;2022-07-06T04:23:02;100307.16;;;23.89;55.73
41800;BME280;27468;47.460;19.034;2022-07-06T04:25:28;100303.47;;;24.14;54.13
41800;BME280;27468;47.460;19.034;2022-07-06T04:27:53;100308.91;;;24.36;53.71
41800;BME280;27468;47.460;19.034;2022-07-06T04:30:19;100299.38;;;24.99;52.60
41800;BME280;27468;47.460;19.034;2022-07-06T04:32:44;100289.69;;;25.51;49.94
41800;BME280;27468;47.460;19.034;2022-07-06T04:35:10;100284.84;;;25.77;48.82
41800;BME280;27468;47.460;19.034;2022-07-06T04:37:35;100293.22;;;25.95;48.79
41800;BME280;27468;47.460;19.034;2022-07-06T04:40:01;100299.13;;;25.68;48.00
41800;BME280;27468;47.460;19.034;2022-07-06T04:42:27;100272.28;;;25.44;49.44
41800;BME280;27468;47.460;19.034;2022-07-06T04:44:52;100287.81;;;25.74;48.13
41800;BME280;27468;47.460;19.034;2022-07-06T04:47:18;100285.31;;;25.82;47.62
41800;BME280;27468;47.460;19.034;2022-07-06T04:49:43;100260.94;;;25.73;47.85
41800;BME280;27468;47.460;19.034;2022-07-06T04:52:09;100286.50;;;26.10;47.18
41800;BME280;27468;47.460;19.034;2022-07-06T04:54:35;100289.69;;;26.36;46.85
41800;BME280;27468;47.460;19.034;2022-07-06T04:57:00;100311.38;;;26.76;46.21
41800;BME280;27468;47.460;19.034;2022-07-06T04:59:25;100308.38;;;27.00;44.97
41800;BME280;27468;47.460;19.034;2022-07-06T05:01:51;100302.72;;;27.13;44.80
41800;BME280;27468;47.460;19.034;2022-07-06T05:04:17;100312.50;;;27.04;44.78
41800;BME280;27468;47.460;19.034;2022-07-06T05:06:44;100293.41;;;26.96;44.63
41800;BME280;27468;47.460;19.034;2022-07-06T05:09:11;100306.69;;;26.78;45.09
41800;BME280;27468;47.460;19.034;2022-07-06T05:11:36;100288.00;;;26.75;44.72
41800;BME280;27468;47.460;19.034;2022-07-06T05:14:03;100314.94;;;27.07;43.84
41800;BME280;27468;47.460;19.034;2022-07-06T05:16:28;100307.44;;;27.30;43.87
41800;BME280;27468;47.460;19.034;2022-07-06T05:18:53;100301.53;;;27.15;43.84
41800;BME280;27468;47.460;19.034;2022-07-06T05:21:19;100305.19;;;27.54;43.44
41800;BME280;27468;47.460;19.034;2022-07-06T05:23:44;100283.41;;;27.94;42.07
41800;BME280;27468;47.460;19.034;2022-07-06T05:26:10;100316.19;;;28.20;41.51
41800;BME280;27468;47.460;19.034;2022-07-06T05:28:35;100305.22;;;28.12;41.31
41800;BME280;27468;47.460;19.034;2022-07-06T05:31:01;100319.06;;;27.90;42.08
41800;BME280;27468;47.460;19.034;2022-07-06T05:33:29;100296.69;;;27.59;42.10
41800;BME280;27468;47.460;19.034;2022-07-06T05:35:55;100329.19;;;27.59;42.61
41800;BME280;27468;47.460;19.034;2022-07-06T05:38:20;100318.34;;;27.00;44.28
41800;BME280;27468;47.460;19.034;2022-07-06T05:40:46;100304.81;;;26.27;45.83
41800;BME280;27468;47.460;19.034;2022-07-06T05:43:11;100314.56;;;26.19;45.22
41800;BME280;27468;47.460;19.034;2022-07-06T05:45:37;100328.44;;;26.77;45.13
41800;BME280;27468;47.460;19.034;2022-07-06T05:48:02;100350.72;;;26.90;44.80
41800;BME280;27468;47.460;19.034;2022-07-06T05:50:46;100337.88;;;26.52;45.73
41800;BME280;27468;47.460;19.034;2022-07-06T05:53:12;100345.59;;;26.36;45.63
41800;BME280;27468;47.460;19.034;2022-07-06T05:55:37;100362.31;;;26.29;46.48
41800;BME280;27468;47.460;19.034;2022-07-06T05:58:03;100349.97;;;25.95;46.88
41800;BME280;27468;47.460;19.034;2022-07-06T06:00:29;100353.75;;;25.49;48.17
41800;BME280;27468;47.460;19.034;2022-07-06T06:02:55;100350.75;;;24.98;49.66
41800;BME280;27468;47.460;19.034;2022-07-06T06:05:21;100360.28;;;24.91;50.26
41800;BME280;27468;47.460;19.034;2022-07-06T06:07:46;100367.13;;;24.50;51.05
41800;BME280;27468;47.460;19.034;2022-07-06T06:10:14;100325.56;;;23.71;51.98
41800;BME280;27468;47.460;19.034;2022-07-06T06:12:41;100376.59;;;23.73;53.34
41800;BME280;27468;47.460;19.034;2022-07-06T06:15:07;100374.97;;;23.59;54.20
41800;BME280;27468;47.460;19.034;2022-07-06T06:17:33;100386.81;;;23.44;55.12
41800;BME280;27468;47.460;19.034;2022-07-06T06:19:59;100392.53;;;23.39;54.86
41800;BME280;27468;47.460;19.034;2022-07-06T06:22:25;100384.25;;;23.30;55.23
41800;BME280;27468;47.460;19.034;2022-07-06T06:24:51;100375.66;;;23.25;55.42
41800;BME280;27468;47.460;19.034;2022-07-06T06:27:16;100377.94;;;23.18;55.67
41800;BME280;27468;47.460;19.034;2022-07-06T06:29:42;100371.41;;;23.10;55.98
41800;BME280;27468;47.460;19.034;2022-07-06T06:32:10;100375.41;;;23.04;55.86
41800;BME280;27468;47.460;19.034;2022-07-06T06:34:36;100376.69;;;22.98;56.50
41800;BME280;27468;47.460;19.034;2022-07-06T06:37:01;100387.88;;;23.05;56.87
41800;BME280;27468;47.460;19.034;2022-07-06T06:39:27;100383.59;;;23.02;56.44
41800;BME280;27468;47.460;19.034;2022-07-06T06:41:52;100370.38;;;22.87;56.14
41800;BME280;27468;47.460;19.034;2022-07-06T06:44:18;100360.56;;;22.73;56.61
41800;BME280;27468;47.460;19.034;2022-07-06T06:46:43;100372.16;;;22.73;56.25
41800;BME280;27468;47.460;19.034;2022-07-06T06:49:09;100375.06;;;22.70;56.58
41800;BME280;27468;47.460;19.034;2022-07-06T06:51:35;100389.91;;;22.76;57.28
41800;BME280;27468;47.460;19.034;2022-07-06T06:54:00;100383.03;;;22.72;56.56
41800;BME280;27468;47.460;19.034;2022-07-06T06:56:26;100388.28;;;22.73;56.98
41800;BME280;27468;47.460;19.034;2022-07-06T06:58:51;100394.31;;;22.77;56.89
41800;BME280;27468;47.460;19.034;2022-07-06T07:01:17;100384.84;;;22.71;57.65
41800;BME280;27468;47.460;19.034;2022-07-06T07:03:42;100372.59;;;22.67;57.57
41800;BME280;27468;47.460;19.034;2022-07-06T07:06:08;100403.28;;;22.90;56.59
41800;BME280;27468;47.460;19.034;2022-07-06T07:08:33;100376.16;;;22.81;56.73
41800;BME280;27468;47.460;19.034;2022-07-06T07:10:58;100397.78;;;22.92;56.15
41800;BME280;27468;47.460;19.034;2022-07-06T07:13:24;100397.47;;;22.96;56.63
41800;BME280;27468;47.460;19.034;2022-07-06T07:15:50;100411.13;;;23.06;56.58
41800;BME280;27468;47.460;19.034;2022-07-06T07:18:15;100384.56;;;23.01;57.17
41800;BME280;27468;47.460;19.034;2022-07-06T07:20:41;100404.94;;;23.17;56.68
41800;BME280;27468;47.460;19.034;2022-07-06T07:23:06;100390.53;;;23.18;55.91
41800;BME280;27468;47.460;19.034;2022-07-06T07:25:31;100371.53;;;23.08;55.48
41800;BME280;27468;47.460;19.034;2022-07-06T07:27:57;100383.31;;;23.18;55.41
41800;BME280;27468;47.460;19.034;2022-07-06T07:30:22;100412.34;;;23.38;54.52
41800;BME280;27468;47.460;19.034;2022-07-06T07:32:48;100396.75;;;23.31;54.33
41800;BME280;27468;47.460;19.034;2022-07-06T07:35:13;100417.50;;;23.42;54.50
41800;BME280;27468;47.460;19.034;2022-07-06T07:37:39;100391.47;;;23.29;54.81
41800;BME280;27468;47.460;19.034;2022-07-06T07:40:05;100418.13;;;23.45;55.19
41800;BME280;27468;47.460;19.034;2022-07-06T07:42:31;100415.31;;;23.47;54.46
41800;BME280;27468;47.460;19.034;2022-07-06T07:44:56;100412.88;;;23.44;54.04
41800;BME280;27468;47.460;19.034;2022-07-06T07:47:22;100384.81;;;23.22;52.51
41800;BME280;27468;47.460;19.034;2022-07-06T07:49:47;100412.34;;;23.38;54.23
41800;BME280;27468;47.460;19.034;2022-07-06T07:52:13;100427.41;;;23.54;54.16
41800;BME280;27468;47.460;19.034;2022-07-06T07:54:38;100408.13;;;23.47;54.14
41800;BME280;27468;47.460;19.034;2022-07-06T07:57:05;100419.22;;;23.55;53.41
41800;BME280;27468;47.460;19.034;2022-07-06T07:59:30;100401.53;;;23.51;53.91
41800;BME280;27468;47.460;19.034;2022-07-06T08:01:55;100440.47;;;23.71;53.42
41800;BME280;27468;47.460;19.034;2022-07-06T08:04:21;100409.72;;;23.62;52.81
41800;BME280;27468;47.460;19.034;2022-07-06T08:06:47;100429.34;;;23.76;52.91
41800;BME280;27468;47.460;19.034;2022-07-06T08:09:12;100421.81;;;23.81;52.53
41800;BME280;27468;47.460;19.034;2022-07-06T08:11:38;100414.06;;;23.76;52.01
41800;BME280;27468;47.460;19.034;2022-07-06T08:14:03;100413.19;;;23.76;52.21
41800;BME280;27468;47.460;19.034;2022-07-06T08:16:29;100433.72;;;23.89;52.38
41800;BME280;27468;47.460;19.034;2022-07-06T08:18:55;100410.69;;;23.85;52.32
41800;BME280;27468;47.460;19.034;2022-07-06T08:21:21;100430.97;;;24.02;51.89
41800;BME280;27468;47.460;19.034;2022-07-06T08:23:46;100437.97;;;24.04;52.30
41800;BME280;27468;47.460;19.034;2022-07-06T08:26:12;100414.94;;;24.00;51.64
41800;BME280;27468;47.460;19.034;2022-07-06T08:28:37;100430.81;;;24.16;50.86
41800;BME280;27468;47.460;19.034;2022-07-06T08:31:03;100406.78;;;24.13;50.63
41800;BME280;27468;47.460;19.034;2022-07-06T08:33:28;100412.34;;;24.23;50.57
41800;BME280;27468;47.460;19.034;2022-07-06T08:35:54;100405.06;;;24.36;50.52
41800;BME280;27468;47.460;19.034;2022-07-06T08:38:19;100444.72;;;24.69;50.69
41800;BME280;27468;47.460;19.034;2022-07-06T08:40:47;100413.50;;;24.78;50.06
41800;BME280;27468;47.460;19.034;2022-07-06T08:43:14;100424.09;;;25.03;49.93
41800;BME280;27468;47.460;19.034;2022-07-06T08:45:40;100420.91;;;25.20;47.37
41800;BME280;27468;47.460;19.034;2022-07-06T08:48:09;100426.44;;;25.30;46.57
41800;BME280;27468;47.460;19.034;2022-07-06T08:50:35;100445.16;;;25.43;46.56
41800;BME280;27468;47.460;19.034;2022-07-06T08:53:00;100430.97;;;25.41;45.77
41800;BME280;27468;47.460;19.034;2022-07-06T08:55:27;100440.38;;;25.57;46.00
41800;BME280;27468;47.460;19.034;2022-07-06T08:57:54;100444.06;;;25.56;45.51
41800;BME280;27468;47.460;19.034;2022-07-06T09:00:20;100434.13;;;25.46;46.03
41800;BME280;27468;47.460;19.034;2022-07-06T09:02:46;100436.06;;;25.55;45.94
41800;BME280;27468;47.460;19.034;2022-07-06T09:05:14;100426.50;;;25.62;45.42
41800;BME280;27468;47.460;19.034;2022-07-06T09:07:40;100418.16;;;25.76;46.62
41800;BME280;27468;47.460;19.034;2022-07-06T09:10:08;100440.81;;;25.96;45.38
41800;BME280;27468;47.460;19.034;2022-07-06T09:12:34;100417.53;;;25.84;44.82
41800;BME280;27468;47.460;19.034;2022-07-06T09:14:59;100428.69;;;25.90;43.70
41800;BME280;27468;47.460;19.034;2022-07-06T09:17:28;100417.75;;;25.92;43.98
41800;BME280;27468;47.460;19.034;2022-07-06T09:19:55;100433.78;;;26.05;44.09
41800;BME280;27468;47.460;19.034;2022-07-06T09:22:28;100420.66;;;26.00;43.36
41800;BME280;27468;47.460;19.034;2022-07-06T09:25:15;100426.47;;;25.95;43.02
41800;BME280;27468;47.460;19.034;2022-07-06T09:27:46;100421.25;;;26.04;43.23
41800;BME280;27468;47.460;19.034;2022-07-06T09:30:15;100434.72;;;26.15;42.97
41800;BME280;27468;47.460;19.034;2022-07-06T09:32:48;100415.31;;;26.10;43.04
41800;BME280;27468;47.460;19.034;2022-07-06T09:35:29;100426.81;;;26.23;42.48
41800;BME280;27468;47.460;19.034;2022-07-06T09:40:30;100416.19;;;26.10;42.11
41800;BME280;27468;47.460;19.034;2022-07-06T09:43:16;100431.16;;;26.14;42.65
41800;BME280;27468;47.460;19.034;2022-07-06T09:45:46;100407.81;;;26.13;42.33
41800;BME280;27468;47.460;19.034;2022-07-06T09:48:16;100429.66;;;26.33;41.55
41800;BME280;27468;47.460;19.034;2022-07-06T09:50:51;100430.38;;;26.35;41.41
41800;BME280;27468;47.460;19.034;2022-07-06T09:53:19;100438.63;;;26.33;41.08
41800;BME280;27468;47.460;19.034;2022-07-06T09:55:49;100437.25;;;26.39;41.25
41800;BME280;27468;47.460;19.034;2022-07-06T09:58:17;100406.03;;;26.35;40.40
41800;BME280;27468;47.460;19.034;2022-07-06T10:00:43;100422.81;;;26.49;40.00
41800;BME280;27468;47.460;19.034;2022-07-06T10:03:10;100432.13;;;26.56;39.86
41800;BME280;27468;47.460;19.034;2022-07-06T10:05:41;100411.28;;;26.47;39.51
41800;BME280;27468;47.460;19.034;2022-07-06T10:08:08;100433.88;;;26.67;38.90
41800;BME280;27468;47.460;19.034;2022-07-06T10:10:38;100416.25;;;26.73;38.89
41800;BME280;27468;47.460;19.034;2022-07-06T10:13:04;100425.88;;;26.86;38.71
41800;BME280;27468;47.460;19.034;2022-07-06T10:15:33;100426.94;;;26.95;38.75
41800;BME280;27468;47.460;19.034;2022-07-06T10:18:01;100437.25;;;27.01;38.06
41800;BME280;27468;47.460;19.034;2022-07-06T10:20:32;100394.72;;;26.92;37.36
41800;BME280;27468;47.460;19.034;2022-07-06T10:23:00;100413.22;;;27.08;37.82
41800;BME280;27468;47.460;19.034;2022-07-06T10:25:26;100434.22;;;27.25;37.11
41800;BME280;27468;47.460;19.034;2022-07-06T10:27:53;100434.13;;;27.36;37.08
41800;BME280;27468;47.460;19.034;2022-07-06T10:30:19;100428.41;;;27.60;36.33
41800;BME280;27468;47.460;19.034;2022-07-06T10:32:47;100427.94;;;27.55;35.72
41800;BME280;27468;47.460;19.034;2022-07-06T10:35:14;100412.09;;;27.50;35.60
41800;BME280;27468;47.460;19.034;2022-07-06T10:37:40;100441.25;;;27.68;35.61
41800;BME280;27468;47.460;19.034;2022-07-06T10:40:07;100414.78;;;27.50;35.64
41800;BME280;27468;47.460;19.034;2022-07-06T10:42:59;100428.19;;;27.52;36.08
41800;BME280;27468;47.460;19.034;2022-07-06T10:50:38;100434.25;;;27.35;34.63
41800;BME280;27468;47.460;19.034;2022-07-06T10:53:10;100430.50;;;27.26;34.81
41800;BME280;27468;47.460;19.034;2022-07-06T10:55:38;100430.25;;;27.29;33.54
41800;BME280;27468;47.460;19.034;2022-07-06T10:58:04;100421.09;;;27.20;34.44
41800;BME280;27468;47.460;19.034;2022-07-06T11:00:52;100442.16;;;27.47;33.61
41800;BME280;27468;47.460;19.034;2022-07-06T11:03:34;100441.31;;;27.56;33.44
41800;BME280;27468;47.460;19.034;2022-07-06T11:06:00;100432.81;;;27.61;33.97
41800;BME280;27468;47.460;19.034;2022-07-06T11:16:21;100438.97;;;27.82;31.16
41800;BME280;27468;47.460;19.034;2022-07-06T11:19:11;100423.44;;;27.84;31.59
41800;BME280;27468;47.460;19.034;2022-07-06T11:24:11;100411.47;;;27.97;31.38
41800;BME280;27468;47.460;19.034;2022-07-06T11:26:37;100436.16;;;28.03;30.79
41800;BME280;27468;47.460;19.034;2022-07-06T11:29:04;100430.59;;;28.05;30.46
41800;BME280;27468;47.460;19.034;2022-07-06T11:31:34;100435.31;;;28.03;30.64
41800;BME280;27468;47.460;19.034;2022-07-06T11:34:00;100434.88;;;27.98;30.04
41800;BME280;27468;47.460;19.034;2022-07-06T11:36:26;100417.91;;;27.95;29.48
41800;BME280;27468;47.460;19.034;2022-07-06T11:38:51;100430.03;;;28.01;30.10
41800;BME280;27468;47.460;19.034;2022-07-06T11:41:17;100408.19;;;27.93;29.70
41800;BME280;27468;47.460;19.034;2022-07-06T11:43:44;100439.75;;;28.04;29.65
41800;BME280;27468;47.460;19.034;2022-07-06T11:46:27;100448.56;;;27.96;28.91
41800;BME280;27468;47.460;19.034;2022-07-06T11:48:55;100429.59;;;27.96;29.20
41800;BME280;27468;47.460;19.034;2022-07-06T11:51:22;100425.72;;;27.89;30.08
41800;BME280;27468;47.460;19.034;2022-07-06T11:53:51;100426.59;;;27.89;29.70
41800;BME280;27468;47.460;19.034;2022-07-06T11:56:17;100429.91;;;28.03;29.55
41800;BME280;27468;47.460;19.034;2022-07-06T11:58:45;100433.59;;;28.02;29.40
41800;BME280;27468;47.460;19.034;2022-07-06T12:01:13;100435.31;;;28.12;29.72
41800;BME280;27468;47.460;19.034;2022-07-06T12:03:39;100427.63;;;28.08;29.49
41800;BME280;27468;47.460;19.034;2022-07-06T12:06:06;100448.59;;;28.15;29.22
41800;BME280;27468;47.460;19.034;2022-07-06T12:08:41;100452.50;;;28.22;27.97
41800;BME280;27468;47.460;19.034;2022-07-06T12:11:07;100439.47;;;28.07;28.02
41800;BME280;27468;47.460;19.034;2022-07-06T12:13:38;100451.84;;;28.00;28.52
41800;BME280;27468;47.460;19.034;2022-07-06T12:16:12;100442.53;;;27.83;28.77
41800;BME280;27468;47.460;19.034;2022-07-06T12:18:41;100443.25;;;27.85;27.93
41800;BME280;27468;47.460;19.034;2022-07-06T12:21:08;100431.28;;;27.78;28.48
41800;BME280;27468;47.460;19.034;2022-07-06T12:23:45;100450.84;;;27.91;27.60
41800;BME280;27468;47.460;19.034;2022-07-06T12:26:12;100420.72;;;27.84;27.97
41800;BME280;27468;47.460;19.034;2022-07-06T12:28:38;100443.88;;;28.08;27.91
41800;BME280;27468;47.460;19.034;2022-07-06T12:31:03;100444.59;;;28.19;28.63
41800;BME280;27468;47.460;19.034;2022-07-06T12:33:29;100432.91;;;28.19;28.99
41800;BME280;27468;47.460;19.034;2022-07-06T12:35:55;100437.31;;;28.10;28.76
41800;BME280;27468;47.460;19.034;2022-07-06T12:38:27;100436.16;;;28.03;28.93
41800;BME280;27468;47.460;19.034;2022-07-06T12:40:55;100436.16;;;27.93;28.65
41800;BME280;27468;47.460;19.034;2022-07-06T12:43:40;100438.00;;;27.83;28.83
41800;BME280;27468;47.460;19.034;2022-07-06T12:48:58;100440.59;;;28.04;28.15
41800;BME280;27468;47.460;19.034;2022-07-06T12:51:24;100404.63;;;27.92;27.16
41800;BME280;27468;47.460;19.034;2022-07-06T12:53:50;100439.75;;;28.04;26.45
41800;BME280;27468;47.460;19.034;2022-07-06T12:56:16;100427.59;;;27.98;26.09
41800;BME280;27468;47.460;19.034;2022-07-06T12:59:01;100440.16;;;27.99;26.13
41800;BME280;27468;47.460;19.034;2022-07-06T13:01:26;100430.84;;;27.82;26.07